PWSweather.com
Personal Weather Stations
Station Observations
BLACKWELL
Blackwell, AlfretonGB DE55

BlackwellAlfretonGB DE55

Lat: 53.12076, Lon: -1.354978

Elevation: 410

Station Type: Vantage Pro

High Low Average
Temperature 60.1°F15.6°C 45.3°F7.4°C 51.0°F10.6°C
Dew Point 49.5°F9.7°C 42.3°F5.7°C 45.6°F7.6°C
Winds 1.0 mph 1.6 kmh Calm Calm Calm SCalm S
Wind Gusts 6.0 mph9.7 kmh -- 2.0 mph3.2 kmh
Humidity 94% 63% 82%
Pressure 29.98 in1015.2 mb 29.87 in1011.5 mb -
Precipitation 0.19 in4.8 mm - -
Hour Temp Dew Point Humidity Winds Wind Gusts Pressure Precip Precip Rate Daily Precip Total
12:32 AM 49.8°F9.9°C 45.5°F7.5°C 85% Calm Calm 1.0 mph1.6 kmh 29.96 in1014.6 mb 0.00 in0.0 mm 0.00 in0.0 mm 0.00 in0.0 mm
01:32 AM 48.9°F9.4°C 44.1°F6.7°C 83% Calm Calm 2.0 mph3.2 kmh 29.95 in1014.2 mb 0.00 in0.0 mm 0.00 in0.0 mm 0.00 in0.0 mm
02:32 AM 47.7°F8.7°C 43.0°F6.1°C 84% Calm Calm 2.0 mph3.2 kmh 29.95 in1014.2 mb 0.00 in0.0 mm 0.00 in0.0 mm 0.00 in0.0 mm
03:32 AM 46.9°F8.3°C 42.4°F5.8°C 84% Calm Calm 3.0 mph4.8 kmh 29.94 in1013.9 mb 0.00 in0.0 mm 0.00 in0.0 mm 0.00 in0.0 mm
04:32 AM 45.3°F7.4°C 42.3°F5.7°C 89% Calm Calm 1.0 mph1.6 kmh 29.93 in1013.5 mb 0.00 in0.0 mm 0.00 in0.0 mm 0.00 in0.0 mm
05:32 AM 46.2°F7.9°C 43.2°F6.2°C 89% Calm Calm 1.0 mph1.6 kmh 29.93 in1013.5 mb 0.00 in0.0 mm 0.00 in0.0 mm 0.00 in0.0 mm
06:32 AM 49.1°F9.5°C 45.7°F7.6°C 88% Calm Calm 2.0 mph3.2 kmh 29.93 in1013.5 mb 0.00 in0.0 mm 0.00 in0.0 mm 0.00 in0.0 mm
07:32 AM 51.4°F10.8°C 46.4°F8.0°C 83% Calm Calm 3.0 mph4.8 kmh 29.92 in1013.2 mb 0.00 in0.0 mm 0.00 in0.0 mm 0.00 in0.0 mm
08:32 AM 52.9°F11.6°C 46.9°F8.3°C 80% Calm Calm 3.0 mph4.8 kmh 29.92 in1013.2 mb 0.00 in0.0 mm 0.00 in0.0 mm 0.00 in0.0 mm
09:32 AM 54.0°F12.2°C 46.9°F8.3°C 77% Calm Calm 1.0 mph1.6 kmh 29.92 in1013.2 mb 0.00 in0.0 mm 0.00 in0.0 mm 0.00 in0.0 mm
10:32 AM 52.3°F11.3°C 47.7°F8.7°C 84% Calm Calm 1.0 mph1.6 kmh 29.92 in1013.2 mb 0.00 in0.0 mm 0.00 in0.0 mm 0.01 in0.3 mm
11:32 AM 53.1°F11.7°C 48.0°F8.9°C 83% Calm Calm 3.0 mph4.8 kmh 29.90 in1012.5 mb 0.01 in0.3 mm 0.00 in0.0 mm 0.02 in0.5 mm
12:32 PM 56.8°F13.8°C 49.5°F9.7°C 76% 1.0 mph SSW1.6 kmh SSW 6.0 mph9.7 kmh 29.89 in1012.2 mb 0.01 in0.3 mm 0.00 in0.0 mm 0.02 in0.5 mm
01:32 PM 57.4°F14.1°C 45.0°F7.2°C 63% 1.0 mph SSE1.6 kmh SSE 5.0 mph8.0 kmh 29.89 in1012.2 mb 0.00 in0.0 mm 0.00 in0.0 mm 0.02 in0.5 mm
02:32 PM 60.1°F15.6°C 48.4°F9.1°C 65% Calm Calm 3.0 mph4.8 kmh 29.88 in1011.9 mb 0.00 in0.0 mm 0.00 in0.0 mm 0.02 in0.5 mm
03:32 PM 53.2°F11.8°C 49.1°F9.5°C 86% Calm Calm 2.0 mph3.2 kmh 29.87 in1011.5 mb 0.13 in3.3 mm 0.00 in0.0 mm 0.15 in3.8 mm
04:32 PM 55.6°F13.1°C 45.5°F7.5°C 69% 1.0 mph ESE1.6 kmh ESE 6.0 mph9.7 kmh 29.88 in1011.9 mb 0.00 in0.0 mm 0.00 in0.0 mm 0.15 in3.8 mm
05:32 PM 55.4°F13.0°C 44.2°F6.8°C 66% Calm Calm 3.0 mph4.8 kmh 29.89 in1012.2 mb 0.00 in0.0 mm 0.00 in0.0 mm 0.15 in3.8 mm
06:32 PM 52.0°F11.1°C 46.4°F8.0°C 81% Calm Calm 4.0 mph6.4 kmh 29.91 in1012.9 mb 0.00 in0.0 mm 0.00 in0.0 mm 0.15 in3.8 mm
07:32 PM 49.3°F9.6°C 46.4°F8.0°C 90% Calm Calm 2.0 mph3.2 kmh 29.93 in1013.5 mb 0.02 in0.5 mm 0.00 in0.0 mm 0.17 in4.3 mm
08:32 PM 47.7°F8.7°C 45.9°F7.7°C 93% Calm Calm -- 29.95 in1014.2 mb 0.00 in0.0 mm 0.00 in0.0 mm 0.17 in4.3 mm
09:32 PM 46.6°F8.1°C 44.6°F7.0°C 93% Calm Calm 1.0 mph1.6 kmh 29.97 in1014.9 mb 0.02 in0.5 mm 0.00 in0.0 mm 0.19 in4.8 mm
10:32 PM 45.5°F7.5°C 43.9°F6.6°C 94% Calm Calm -- 29.98 in1015.2 mb 0.00 in0.0 mm 0.00 in0.0 mm 0.19 in4.8 mm
11:32 PM 45.7°F7.6°C 44.1°F6.7°C 94% Calm Calm 1.0 mph1.6 kmh 29.98 in1015.2 mb 0.00 in0.0 mm 0.00 in0.0 mm 0.18 in4.6 mm